createdAt,value
2017-09-29T00:00:09.954Z,97.90
2017-09-29T00:02:39.375Z,97.80
2017-09-29T00:05:08.878Z,97.90
2017-09-29T00:07:38.919Z,97.80
2017-09-29T00:10:08.218Z,97.90
2017-09-29T00:12:37.475Z,97.90
2017-09-29T00:15:06.760Z,97.80
2017-09-29T00:17:36.016Z,97.80
2017-09-29T00:20:05.274Z,97.80
2017-09-29T00:22:34.591Z,97.90
2017-09-29T00:25:04.209Z,97.80
2017-09-29T00:27:33.549Z,97.90
2017-09-29T00:30:02.838Z,97.80
2017-09-29T00:32:33.031Z,97.90
2017-09-29T00:35:03.173Z,97.90
2017-09-29T00:37:32.420Z,97.80
2017-09-29T00:40:02.476Z,98.00
2017-09-29T00:42:31.766Z,98.00
2017-09-29T00:45:01.029Z,98.10
2017-09-29T00:47:30.306Z,98.00
2017-09-29T00:49:59.589Z,98.10
2017-09-29T00:52:28.862Z,98.10
2017-09-29T00:54:58.156Z,98.10
2017-09-29T00:57:27.431Z,98.10
2017-09-29T00:59:56.702Z,98.10
2017-09-29T01:02:25.979Z,98.10
2017-09-29T01:04:55.390Z,98.10
2017-09-29T01:07:25.511Z,98.10
2017-09-29T01:09:55.552Z,98.10
2017-09-29T01:12:24.827Z,98.00
2017-09-29T01:14:54.105Z,98.00
2017-09-29T01:17:23.398Z,98.00
2017-09-29T01:19:52.658Z,97.90
2017-09-29T01:22:21.940Z,98.00
2017-09-29T01:24:51.233Z,98.10
2017-09-29T01:27:21.289Z,98.30
2017-09-29T01:29:50.650Z,98.30
2017-09-29T01:32:20.672Z,98.60
2017-09-29T01:34:49.936Z,98.60
2017-09-29T01:37:19.217Z,98.70
2017-09-29T01:39:48.494Z,98.60
2017-09-29T01:42:17.931Z,98.40
2017-09-29T01:44:47.243Z,98.50
2017-09-29T01:47:16.542Z,98.60
2017-09-29T01:49:45.812Z,98.50
2017-09-29T01:52:15.097Z,98.50
2017-09-29T01:54:44.357Z,98.40
2017-09-29T01:57:13.663Z,98.30
2017-09-29T01:59:43.106Z,98.20
2017-09-29T02:02:12.395Z,98.20
2017-09-29T02:04:42.417Z,98.70
2017-09-29T02:07:11.680Z,98.70
2017-09-29T02:09:40.983Z,98.50
2017-09-29T02:12:11.758Z,98.40
2017-09-29T02:14:41.065Z,98.30
2017-09-29T02:17:10.332Z,98.30
2017-09-29T02:19:39.591Z,98.50
2017-09-29T02:22:09.642Z,98.70
2017-09-29T02:24:38.914Z,98.70
2017-09-29T02:27:08.194Z,98.60
2017-09-29T02:29:37.453Z,98.60
2017-09-29T02:32:06.887Z,98.30
2017-09-29T02:34:36.143Z,98.30
2017-09-29T02:37:05.690Z,98.30
2017-09-29T02:39:36.623Z,98.40
2017-09-29T02:42:06.634Z,98.40
2017-09-29T02:44:35.933Z,98.30
2017-09-29T02:47:05.239Z,98.40
2017-09-29T02:49:34.498Z,98.30
2017-09-29T02:52:03.770Z,98.30
2017-09-29T02:54:33.275Z,98.10
2017-09-29T02:57:14.292Z,98.20
2017-09-29T02:59:45.766Z,98.30
2017-09-29T03:02:16.229Z,98.30
2017-09-29T03:04:46.825Z,98.20
2017-09-29T03:07:16.256Z,98.50
2017-09-29T03:09:45.515Z,98.60
2017-09-29T03:12:14.800Z,98.50
2017-09-29T03:14:44.115Z,98.70
2017-09-29T03:17:13.325Z,99.00
2017-09-29T03:19:42.595Z,99.10
2017-09-29T03:22:11.853Z,99.10
2017-09-29T03:24:41.197Z,98.80
2017-09-29T03:27:10.549Z,98.90
2017-09-29T03:29:40.591Z,99.00
2017-09-29T03:32:09.869Z,99.00
2017-09-29T03:34:39.277Z,99.10
2017-09-29T03:37:09.317Z,98.90
2017-09-29T03:39:38.709Z,98.90
2017-09-29T03:42:08.002Z,98.90
2017-09-29T03:44:38.121Z,98.60
2017-09-29T03:47:08.774Z,98.50
2017-09-29T03:49:38.062Z,98.50
2017-09-29T03:52:08.574Z,98.50
2017-09-29T03:54:39.017Z,98.60
2017-09-29T03:57:10.498Z,98.50
2017-09-29T03:59:41.867Z,98.50
2017-09-29T04:02:11.134Z,98.50
2017-09-29T04:04:40.406Z,98.30
2017-09-29T04:07:10.166Z,98.30
2017-09-29T04:09:39.434Z,98.30
2017-09-29T04:12:08.706Z,98.20
2017-09-29T04:14:38.820Z,98.30
2017-09-29T04:17:08.089Z,98.30
2017-09-29T04:19:37.390Z,98.20
2017-09-29T04:22:06.656Z,98.40
2017-09-29T04:24:36.692Z,98.20
2017-09-29T04:27:05.954Z,98.20
2017-09-29T04:29:35.218Z,98.20
2017-09-29T04:32:04.675Z,98.20
2017-09-29T04:34:34.789Z,98.10
2017-09-29T04:37:04.817Z,98.30
2017-09-29T04:39:34.067Z,98.30
2017-09-29T04:42:03.397Z,98.50
2017-09-29T04:44:32.682Z,98.30
2017-09-29T04:47:01.942Z,98.40
2017-09-29T04:49:31.229Z,98.50
2017-09-29T04:52:01.310Z,98.60
2017-09-29T04:54:30.577Z,98.60
2017-09-29T04:56:59.840Z,98.70
2017-09-29T04:59:29.089Z,98.60
2017-09-29T05:01:58.366Z,98.50
2017-09-29T05:04:27.692Z,98.50
2017-09-29T05:06:56.975Z,98.60
2017-09-29T05:09:26.238Z,98.40
2017-09-29T05:11:56.499Z,98.80
2017-09-29T05:14:25.976Z,98.50
2017-09-29T05:16:55.234Z,98.50
2017-09-29T05:19:24.506Z,98.40
2017-09-29T05:21:53.766Z,98.30
2017-09-29T05:24:23.809Z,98.20
2017-09-29T05:26:53.079Z,98.20
2017-09-29T05:29:22.324Z,98.10
2017-09-29T05:31:51.805Z,98.10
2017-09-29T05:34:21.831Z,98.10
2017-09-29T05:36:51.229Z,98.10
2017-09-29T05:39:21.266Z,98.30
2017-09-29T05:41:50.674Z,98.20
2017-09-29T05:44:20.158Z,98.30
2017-09-29T05:46:50.198Z,98.20
2017-09-29T05:49:19.469Z,98.20
2017-09-29T05:51:48.774Z,98.20
2017-09-29T05:54:18.013Z,98.20
2017-09-29T05:56:47.572Z,98.10
2017-09-29T05:59:16.863Z,98.10
2017-09-29T06:01:46.159Z,98.00
2017-09-29T06:04:15.589Z,98.00
2017-09-29T06:06:45.616Z,98.00
2017-09-29T06:09:14.921Z,98.00
2017-09-29T06:11:44.173Z,98.00
2017-09-29T06:14:13.442Z,97.80
2017-09-29T06:16:42.790Z,97.80
2017-09-29T06:19:12.046Z,97.60
2017-09-29T06:21:41.331Z,97.60
2017-09-29T06:24:11.389Z,97.10
2017-09-29T06:26:40.641Z,97.10
2017-09-29T06:29:09.921Z,97.00
2017-09-29T06:31:39.191Z,97.00
2017-09-29T06:34:08.590Z,96.90
2017-09-29T06:36:37.877Z,96.70
2017-09-29T06:39:07.151Z,96.60
2017-09-29T06:41:36.451Z,96.40
2017-09-29T06:44:05.712Z,96.10
2017-09-29T06:46:35.086Z,95.90
2017-09-29T06:49:04.356Z,95.40
2017-09-29T06:51:33.678Z,94.90
2017-09-29T06:54:02.892Z,94.50
2017-09-29T06:56:32.143Z,94.40
2017-09-29T06:59:02.258Z,94.50
2017-09-29T07:01:32.274Z,93.80
2017-09-29T07:04:03.058Z,94.10
2017-09-29T07:06:32.945Z,94.10
2017-09-29T07:09:02.246Z,93.90
2017-09-29T07:11:31.523Z,93.60
2017-09-29T07:14:02.376Z,92.70
2017-09-29T07:16:32.454Z,92.80
2017-09-29T07:19:01.876Z,92.70
2017-09-29T07:21:31.135Z,92.60
2017-09-29T07:24:01.334Z,92.60
2017-09-29T07:26:32.109Z,92.00
2017-09-29T07:29:03.238Z,92.30
2017-09-29T07:31:36.318Z,92.00
2017-09-29T07:34:06.494Z,92.30
2017-09-29T07:36:35.823Z,92.30
2017-09-29T07:39:05.090Z,91.80
2017-09-29T07:41:34.438Z,91.70
2017-09-29T07:44:04.457Z,91.60
2017-09-29T07:46:33.855Z,91.60
2017-09-29T07:49:04.509Z,89.80
2017-09-29T07:51:33.787Z,89.80
2017-09-29T07:54:03.090Z,87.50
2017-09-29T07:56:32.507Z,84.50
2017-09-29T07:59:02.558Z,82.20
2017-09-29T08:01:31.943Z,82.20
2017-09-29T08:04:01.437Z,81.80
2017-09-29T08:06:31.486Z,81.30
2017-09-29T08:09:00.867Z,81.30
2017-09-29T08:11:30.918Z,81.70
2017-09-29T08:14:00.195Z,81.70
2017-09-29T08:16:29.452Z,83.40
2017-09-29T08:18:58.738Z,83.70
2017-09-29T08:21:28.173Z,84.50
2017-09-29T08:23:58.219Z,81.90
2017-09-29T08:26:27.477Z,81.80
2017-09-29T08:28:57.521Z,68.00
2017-09-29T08:31:27.558Z,64.30
2017-09-29T08:33:56.829Z,64.30
2017-09-29T08:36:26.141Z,59.00
2017-09-29T08:38:55.396Z,56.60
2017-09-29T08:41:24.642Z,55.80
2017-09-29T08:43:54.957Z,55.20
2017-09-29T08:46:25.015Z,58.30
2017-09-29T08:48:54.376Z,58.20
2017-09-29T08:51:24.422Z,57.20
2017-09-29T08:53:53.702Z,57.10
2017-09-29T08:56:22.961Z,57.10
2017-09-29T08:58:52.241Z,55.40
2017-09-29T09:01:21.501Z,52.90
2017-09-29T09:03:50.825Z,50.90
2017-09-29T09:06:20.133Z,47.90
2017-09-29T09:08:49.515Z,47.00
2017-09-29T09:11:19.569Z,49.80
2017-09-29T09:13:48.818Z,49.80
2017-09-29T09:16:18.086Z,52.30
2017-09-29T09:18:47.450Z,55.60
2017-09-29T09:21:16.745Z,58.10
2017-09-29T09:23:46.149Z,57.90
2017-09-29T09:26:16.206Z,54.60
2017-09-29T09:28:45.462Z,54.70
2017-09-29T09:31:15.098Z,55.50
2017-09-29T09:33:44.351Z,58.50
2017-09-29T09:36:13.871Z,56.60
2017-09-29T09:38:43.237Z,55.20
2017-09-29T09:41:12.715Z,55.90
2017-09-29T09:43:42.710Z,55.20
2017-09-29T09:46:12.106Z,53.50
2017-09-29T09:48:42.122Z,48.50
2017-09-29T09:51:12.126Z,48.40
2017-09-29T09:53:41.389Z,45.40
2017-09-29T09:56:10.673Z,45.30
2017-09-29T09:58:39.971Z,42.30
2017-09-29T10:01:09.285Z,42.00
2017-09-29T10:03:38.654Z,40.90
2017-09-29T10:06:07.920Z,39.70
2017-09-29T10:08:37.221Z,37.70
2017-09-29T10:11:06.498Z,37.10
2017-09-29T10:13:35.785Z,37.30
2017-09-29T10:16:05.036Z,40.20
2017-09-29T10:18:34.377Z,42.60
2017-09-29T10:21:04.414Z,46.90
2017-09-29T10:23:33.669Z,46.80
2017-09-29T10:26:02.959Z,46.30
2017-09-29T10:28:32.200Z,48.50
2017-09-29T10:31:01.475Z,45.90
2017-09-29T10:33:30.731Z,44.30
2017-09-29T10:35:59.969Z,43.10
2017-09-29T10:38:29.243Z,41.90
2017-09-29T10:40:58.698Z,41.30
2017-09-29T10:43:28.979Z,42.70
2017-09-29T10:45:58.321Z,42.70
2017-09-29T10:48:28.593Z,45.40
2017-09-29T10:50:58.662Z,46.30
2017-09-29T10:53:27.940Z,46.20
2017-09-29T10:55:57.267Z,45.60
2017-09-29T10:58:26.555Z,47.70
2017-09-29T11:00:57.326Z,48.60
2017-09-29T11:03:26.813Z,48.60
2017-09-29T11:05:56.069Z,49.30
2017-09-29T11:08:25.510Z,51.00
2017-09-29T11:10:55.546Z,51.70
2017-09-29T11:13:24.799Z,51.60
2017-09-29T11:15:54.054Z,52.70
2017-09-29T11:18:23.306Z,52.10
2017-09-29T11:20:52.631Z,51.70
2017-09-29T11:23:21.898Z,51.40
2017-09-29T11:25:51.151Z,49.70
2017-09-29T11:28:20.419Z,48.00
2017-09-29T11:30:49.658Z,51.90
2017-09-29T11:33:18.910Z,48.70
2017-09-29T11:35:48.194Z,49.40
2017-09-29T11:38:17.428Z,50.40
2017-09-29T11:40:46.740Z,51.40
2017-09-29T11:43:16.006Z,52.70
2017-09-29T11:45:45.274Z,53.40
2017-09-29T11:48:14.550Z,53.20
2017-09-29T11:50:44.591Z,47.60
2017-09-29T11:53:14.001Z,47.60
2017-09-29T11:55:44.229Z,45.90
2017-09-29T11:58:13.478Z,45.90
2017-09-29T12:00:42.780Z,45.80
2017-09-29T12:03:12.026Z,46.20
2017-09-29T12:05:41.286Z,47.30
2017-09-29T12:08:10.569Z,47.90
2017-09-29T12:10:39.835Z,49.30
2017-09-29T12:13:09.075Z,50.90
2017-09-29T12:15:38.349Z,50.80
2017-09-29T12:18:07.614Z,52.30
2017-09-29T12:20:36.956Z,51.60
2017-09-29T12:23:06.230Z,51.50
2017-09-29T12:25:35.652Z,52.10
2017-09-29T12:28:05.009Z,52.60
2017-09-29T12:30:35.015Z,54.00
2017-09-29T12:33:04.410Z,54.00
2017-09-29T12:35:33.661Z,53.80
2017-09-29T12:38:02.906Z,54.20
2017-09-29T12:40:32.957Z,53.90
2017-09-29T12:43:02.969Z,54.40
2017-09-29T12:45:32.214Z,54.40
2017-09-29T12:48:01.492Z,55.00
2017-09-29T12:50:30.778Z,54.70
2017-09-29T12:53:00.872Z,56.80
2017-09-29T12:55:30.137Z,56.80
2017-09-29T12:57:59.374Z,54.60
2017-09-29T13:00:28.801Z,54.20
2017-09-29T13:02:58.880Z,54.60
2017-09-29T13:05:28.218Z,54.50
2017-09-29T13:07:58.277Z,54.40
2017-09-29T13:10:27.534Z,54.40
2017-09-29T13:12:56.834Z,54.60
2017-09-29T13:15:26.055Z,54.50
2017-09-29T13:17:55.360Z,55.60
2017-09-29T13:20:25.391Z,56.70
2017-09-29T13:22:54.648Z,56.70
2017-09-29T13:25:23.893Z,56.10
2017-09-29T13:27:53.148Z,55.80
2017-09-29T13:30:22.697Z,55.50
2017-09-29T13:32:52.365Z,54.30
2017-09-29T13:35:21.642Z,54.20
2017-09-29T13:37:50.978Z,55.10
2017-09-29T13:40:20.239Z,54.70
2017-09-29T13:42:49.510Z,55.40
2017-09-29T13:45:18.785Z,53.70
2017-09-29T13:47:48.708Z,53.70
2017-09-29T13:50:18.039Z,53.70
2017-09-29T13:52:47.315Z,52.20
2017-09-29T13:55:16.546Z,52.70
2017-09-29T13:57:45.836Z,52.70
2017-09-29T14:00:15.097Z,53.70
2017-09-29T14:02:44.373Z,56.20
2017-09-29T14:05:13.620Z,56.60
2017-09-29T14:07:42.900Z,54.50
2017-09-29T14:10:13.064Z,55.10
2017-09-29T14:12:42.313Z,55.20
2017-09-29T14:15:11.599Z,54.90
2017-09-29T14:17:41.161Z,56.00
2017-09-29T14:20:10.414Z,56.10
2017-09-29T14:22:40.629Z,56.30
2017-09-29T14:25:09.897Z,57.00
2017-09-29T14:27:39.179Z,57.00
2017-09-29T14:30:09.926Z,58.80
2017-09-29T14:32:39.201Z,58.80
2017-09-29T14:35:08.460Z,59.80
2017-09-29T14:37:37.724Z,59.90
2017-09-29T14:40:07.033Z,60.30
2017-09-29T14:42:36.274Z,61.00
2017-09-29T14:45:05.562Z,61.40
2017-09-29T14:47:35.534Z,62.80
2017-09-29T14:50:04.772Z,62.00
2017-09-29T14:52:34.114Z,62.10
2017-09-29T14:55:03.374Z,62.90
2017-09-29T14:57:32.672Z,63.20
2017-09-29T15:00:01.938Z,63.00
2017-09-29T15:02:31.188Z,62.30
2017-09-29T15:05:00.454Z,62.90
2017-09-29T15:07:29.742Z,62.50
2017-09-29T15:09:59.807Z,62.80
2017-09-29T15:12:29.041Z,62.40
2017-09-29T15:14:59.094Z,63.60
2017-09-29T15:17:28.346Z,63.60
2017-09-29T15:19:57.606Z,64.10
2017-09-29T15:22:26.862Z,66.00
2017-09-29T15:24:56.909Z,72.30
2017-09-29T15:27:26.164Z,72.20
2017-09-29T15:29:56.196Z,75.40
2017-09-29T15:32:25.449Z,75.50
2017-09-29T15:34:54.693Z,76.50
2017-09-29T15:37:24.722Z,79.80
2017-09-29T15:39:54.768Z,81.00
2017-09-29T15:42:24.164Z,81.10
2017-09-29T15:44:54.192Z,82.10
2017-09-29T15:47:23.568Z,82.00
2017-09-29T15:49:53.714Z,83.10
2017-09-29T15:52:22.978Z,83.00
2017-09-29T15:54:52.378Z,83.50
2017-09-29T15:57:22.600Z,84.80
2017-09-29T15:59:51.850Z,84.90
2017-09-29T16:02:21.109Z,85.60
2017-09-29T16:04:50.511Z,85.30
2017-09-29T16:07:19.770Z,85.80
2017-09-29T16:09:49.034Z,86.70
2017-09-29T16:12:18.416Z,87.10
2017-09-29T16:14:47.696Z,87.50
2017-09-29T16:17:16.948Z,88.00
2017-09-29T16:19:46.249Z,88.30
2017-09-29T16:22:16.223Z,89.90
2017-09-29T16:24:45.506Z,89.90
2017-09-29T16:27:14.778Z,90.00
2017-09-29T16:29:44.007Z,90.30
2017-09-29T16:32:13.282Z,90.50
2017-09-29T16:34:42.582Z,90.40
2017-09-29T16:37:12.178Z,90.70
2017-09-29T16:39:41.416Z,90.80
2017-09-29T16:42:10.850Z,91.00
2017-09-29T16:44:40.108Z,91.00
2017-09-29T16:47:09.367Z,91.10
2017-09-29T16:49:39.360Z,91.10
2017-09-29T16:52:08.696Z,91.50
2017-09-29T16:54:38.789Z,91.60
2017-09-29T16:57:08.042Z,91.60
2017-09-29T16:59:37.289Z,91.90
2017-09-29T17:02:06.565Z,92.00
2017-09-29T17:04:36.013Z,92.00
2017-09-29T17:07:05.262Z,92.40
2017-09-29T17:09:34.733Z,92.70
2017-09-29T17:12:04.015Z,92.90
2017-09-29T17:14:34.062Z,93.00
2017-09-29T17:17:03.402Z,92.90
2017-09-29T17:19:32.736Z,93.10
2017-09-29T17:22:01.991Z,93.30
2017-09-29T17:24:31.283Z,93.40
2017-09-29T17:27:00.527Z,93.50
2017-09-29T17:29:29.845Z,93.50
2017-09-29T17:31:59.948Z,93.70
2017-09-29T17:34:29.289Z,93.80
2017-09-29T17:36:58.550Z,94.00
2017-09-29T17:39:27.876Z,94.10
2017-09-29T17:41:57.329Z,94.10
2017-09-29T17:44:26.675Z,94.10
2017-09-29T17:46:56.720Z,94.00
2017-09-29T17:49:25.976Z,94.00
2017-09-29T17:51:55.231Z,94.00
2017-09-29T17:54:25.698Z,94.00
2017-09-29T17:56:55.062Z,94.10
2017-09-29T17:59:24.333Z,94.30
2017-09-29T18:01:54.348Z,94.40
2017-09-29T18:04:23.617Z,94.40
2017-09-29T18:06:53.048Z,94.40
2017-09-29T18:09:23.066Z,94.40
2017-09-29T18:11:52.327Z,94.40
2017-09-29T18:14:21.573Z,94.60
2017-09-29T18:16:51.643Z,94.60
2017-09-29T18:19:21.747Z,94.60
2017-09-29T18:21:51.014Z,94.80
2017-09-29T18:24:20.842Z,94.40
2017-09-29T18:26:50.844Z,94.50
2017-09-29T18:29:20.102Z,94.50
2017-09-29T18:31:49.343Z,94.40
2017-09-29T18:34:19.758Z,94.30
2017-09-29T18:36:49.681Z,94.30
2017-09-29T18:39:20.237Z,94.40
2017-09-29T18:41:50.104Z,94.50
2017-09-29T18:44:19.613Z,94.70
2017-09-29T18:46:51.091Z,94.70
2017-09-29T18:49:21.102Z,94.60
2017-09-29T18:51:50.370Z,94.60
2017-09-29T18:54:20.115Z,94.80
2017-09-29T18:56:49.791Z,94.60
2017-09-29T18:59:19.094Z,94.50
2017-09-29T19:01:48.865Z,94.60
2017-09-29T19:04:18.577Z,94.60
2017-09-29T19:06:47.960Z,94.70
2017-09-29T19:09:18.007Z,94.80
2017-09-29T19:11:47.251Z,94.80
2017-09-29T19:14:16.678Z,94.80
2017-09-29T19:16:46.706Z,94.80
2017-09-29T19:19:15.982Z,94.50
2017-09-29T19:21:46.036Z,94.50
2017-09-29T19:24:16.081Z,94.80
2017-09-29T19:26:45.451Z,94.50
2017-09-29T19:29:15.593Z,94.50
2017-09-29T19:31:44.878Z,94.50
2017-09-29T19:34:14.150Z,94.60
2017-09-29T19:36:43.637Z,94.60
2017-09-29T19:39:12.912Z,94.50
2017-09-29T19:41:42.530Z,94.50
2017-09-29T19:44:11.802Z,94.60
2017-09-29T19:46:41.557Z,94.60
2017-09-29T19:49:10.832Z,94.70
2017-09-29T19:51:40.398Z,94.80
2017-09-29T19:54:10.046Z,95.00
2017-09-29T19:56:39.973Z,95.00
2017-09-29T19:59:09.766Z,95.00
2017-09-29T20:01:39.383Z,95.10
2017-09-29T20:04:08.908Z,95.10
2017-09-29T20:06:38.204Z,95.20
2017-09-29T20:09:07.584Z,95.20
2017-09-29T20:11:36.851Z,95.20
2017-09-29T20:14:06.271Z,95.20
2017-09-29T20:16:36.438Z,95.30
2017-09-29T20:19:05.761Z,95.10
2017-09-29T20:21:35.084Z,95.00
2017-09-29T20:24:04.358Z,95.20
2017-09-29T20:26:33.638Z,95.20
2017-09-29T20:29:02.910Z,95.30
2017-09-29T20:31:33.014Z,95.20
2017-09-29T20:34:03.074Z,95.20
2017-09-29T20:36:32.352Z,95.20
2017-09-29T20:39:01.675Z,95.30
2017-09-29T20:41:30.918Z,95.50
2017-09-29T20:44:00.186Z,95.50
2017-09-29T20:46:29.481Z,95.50
2017-09-29T20:48:58.765Z,95.60
2017-09-29T20:51:28.032Z,95.60
2017-09-29T20:53:57.259Z,95.70
2017-09-29T20:56:26.642Z,95.90
2017-09-29T20:58:55.914Z,95.90
2017-09-29T21:01:25.206Z,96.00
2017-09-29T21:03:54.477Z,96.00
2017-09-29T21:06:23.859Z,95.90
2017-09-29T21:08:53.894Z,96.10
2017-09-29T21:11:23.270Z,95.90
2017-09-29T21:13:52.526Z,95.90
2017-09-29T21:16:21.780Z,96.00
2017-09-29T21:18:51.170Z,96.00
2017-09-29T21:21:20.410Z,96.00
2017-09-29T21:23:49.670Z,96.10
2017-09-29T21:26:18.941Z,96.20
2017-09-29T21:28:48.230Z,96.30
2017-09-29T21:31:17.514Z,96.30
2017-09-29T21:33:46.789Z,96.50
2017-09-29T21:36:16.834Z,96.60
2017-09-29T21:38:46.194Z,96.60
2017-09-29T21:41:15.441Z,96.70
2017-09-29T21:43:44.710Z,96.80
2017-09-29T21:46:13.978Z,96.90
2017-09-29T21:48:44.030Z,97.00
2017-09-29T21:51:14.069Z,97.00
2017-09-29T21:53:43.354Z,97.00
2017-09-29T21:56:12.599Z,97.00
2017-09-29T21:58:41.886Z,97.10
2017-09-29T22:01:11.139Z,97.10
2017-09-29T22:03:40.381Z,97.10
2017-09-29T22:06:09.754Z,97.00
2017-09-29T22:08:39.762Z,97.00
2017-09-29T22:11:09.169Z,97.00
2017-09-29T22:13:38.410Z,96.90
2017-09-29T22:16:07.701Z,96.90
2017-09-29T22:18:36.945Z,96.90
2017-09-29T22:21:06.218Z,97.00
2017-09-29T22:23:35.466Z,97.10
2017-09-29T22:26:04.709Z,97.00
2017-09-29T22:28:33.969Z,97.10
2017-09-29T22:31:03.991Z,97.10
2017-09-29T22:33:34.043Z,97.10
2017-09-29T22:36:03.290Z,97.10
2017-09-29T22:38:32.566Z,97.10
2017-09-29T22:41:01.823Z,97.00
2017-09-29T22:43:31.861Z,97.10
2017-09-29T22:46:01.129Z,97.10
2017-09-29T22:48:30.373Z,97.20
2017-09-29T22:50:59.637Z,97.30
2017-09-29T22:53:29.657Z,97.50
2017-09-29T22:55:58.906Z,97.50
2017-09-29T22:58:28.156Z,97.60
2017-09-29T23:00:58.171Z,97.50
2017-09-29T23:03:27.444Z,97.50
2017-09-29T23:05:56.865Z,97.50
2017-09-29T23:08:26.931Z,97.90
2017-09-29T23:10:56.172Z,97.60
2017-09-29T23:13:25.538Z,97.60
2017-09-29T23:15:54.805Z,97.70
2017-09-29T23:18:24.054Z,97.70
2017-09-29T23:20:53.334Z,97.80
2017-09-29T23:23:23.569Z,97.50
2017-09-29T23:25:52.950Z,97.60
2017-09-29T23:28:23.041Z,97.50
2017-09-29T23:30:53.096Z,97.60
2017-09-29T23:33:22.391Z,97.60
2017-09-29T23:35:51.750Z,97.60
2017-09-29T23:38:20.988Z,97.70
2017-09-29T23:40:50.263Z,97.50
2017-09-29T23:43:19.510Z,97.60
2017-09-29T23:45:48.820Z,97.60
2017-09-29T23:48:18.094Z,97.90
2017-09-29T23:50:48.123Z,98.00
2017-09-29T23:53:17.357Z,98.00
2017-09-29T23:55:46.621Z,97.90
2017-09-29T23:58:15.920Z,97.90
